TimeCDT,TemperatureF,Dew PointF,Humidity,Sea Level PressureIn,VisibilityMPH,Wind Direction,Wind SpeedMPH,Gust SpeedMPH,PrecipitationIn,Events,Conditions,WindDirDegrees,DateUTC
12:15 AM,55.4,44.6,67,29.95,10.0,NNE,12.7,19.6,N/A,,Scattered Clouds,30,2011-10-27 05:15:00
12:35 AM,55.4,44.6,67,29.94,10.0,NNE,12.7,19.6,N/A,,Scattered Clouds,30,2011-10-27 05:35:00
1:15 AM,55.4,42.8,63,29.95,10.0,NNE,12.7,19.6,N/A,,Mostly Cloudy,30,2011-10-27 06:15:00
1:35 AM,55.4,42.8,63,29.95,10.0,NNE,13.8,18.4,N/A,,Scattered Clouds,30,2011-10-27 06:35:00
1:55 AM,55.4,42.8,63,29.95,10.0,NNE,17.3,21.9,N/A,Rain,Light Rain,20,2011-10-27 06:55:00
2:15 AM,55.4,42.8,63,29.94,10.0,NE,13.8,-,N/A,,Scattered Clouds,40,2011-10-27 07:15:00
2:35 AM,55.4,42.8,63,29.95,10.0,NNE,12.7,-,N/A,,Mostly Cloudy,20,2011-10-27 07:35:00
2:55 AM,55.4,42.8,63,29.95,10.0,NNE,16.1,20.7,N/A,,Overcast,30,2011-10-27 07:55:00
3:15 AM,55.4,42.8,63,29.95,10.0,NNE,16.1,-,N/A,,Overcast,30,2011-10-27 08:15:00
3:35 AM,55.4,42.8,63,29.96,10.0,NNE,15.0,24.2,N/A,,Overcast,20,2011-10-27 08:35:00
3:55 AM,55.4,42.8,63,29.99,10.0,North,15.0,25.3,N/A,Rain,Light Rain,10,2011-10-27 08:55:00
4:15 AM,53.6,42.8,67,30.03,10.0,NNW,15.0,21.9,N/A,Rain,Light Rain,340,2011-10-27 09:15:00
4:35 AM,50.0,44.6,82,30.03,7.0,North,17.3,25.3,0.03,Rain,Rain,350,2011-10-27 09:35:00
4:55 AM,50.0,44.6,82,30.02,10.0,North,12.7,18.4,0.04,Rain-Thunderstorm,Light Thunderstorms and Rain,10,2011-10-27 09:55:00
5:15 AM,50.0,44.6,82,30.02,10.0,North,17.3,27.6,N/A,,Overcast,10,2011-10-27 10:15:00
5:35 AM,50.0,44.6,82,30.06,10.0,North,13.8,19.6,N/A,,Overcast,350,2011-10-27 10:35:00
5:55 AM,48.2,44.6,87,30.07,10.0,North,18.4,24.2,N/A,,Overcast,350,2011-10-27 10:55:00
6:15 AM,48.2,44.6,87,30.03,10.0,NNE,13.8,19.6,N/A,Rain,Light Rain,20,2011-10-27 11:15:00
6:35 AM,48.2,44.6,87,30.04,10.0,NNE,12.7,19.6,N/A,Rain,Light Rain,20,2011-10-27 11:35:00
6:55 AM,48.2,44.6,87,30.04,10.0,NNE,17.3,-,0.02,Rain,Light Rain,20,2011-10-27 11:55:00
7:55 AM,48.2,44.6,87,30.02,10.0,NNE,6.9,-,N/A,,Light Drizzle,20,2011-10-27 12:55:00
8:55 AM,48.2,44.6,87,30.04,10.0,NNE,4.6,16.1,N/A,,Light Drizzle,20,2011-10-27 13:55:00
9:55 AM,48.2,44.6,87,30.10,10.0,North,4.6,-,N/A,Rain,Rain,10,2011-10-27 14:55:00
11:55 AM,48.2,44.6,87,30.06,10.0,NE,9.2,17.3,N/A,,Light Drizzle,40,2011-10-27 16:55:00
12:55 PM,48.2,44.6,87,30.05,10.0,NNE,12.7,18.4,N/A,,Light Drizzle,30,2011-10-27 17:55:00
1:55 PM,50.0,44.6,82,30.05,10.0,North,10.4,-,N/A,,Overcast,10,2011-10-27 18:55:00
2:55 PM,48.2,44.6,87,30.05,7.0,North,4.6,-,N/A,Rain,Rain,360,2011-10-27 19:55:00
4:55 PM,46.4,44.6,93,30.05,7.0,North,12.7,-,N/A,Rain,Light Rain,360,2011-10-27 21:55:00
5:55 PM,46.4,44.6,93,30.08,7.0,North,12.7,18.4,N/A,Rain,Rain,350,2011-10-27 22:55:00
10:15 PM,46.4,44.6,93,30.17,10.0,North,4.6,-,N/A,Rain,Rain,10,2011-10-28 03:15:00
10:35 PM,46.4,44.6,93,30.17,10.0,North,5.8,-,N/A,,Drizzle,10,2011-10-28 03:35:00
11:15 PM,46.4,42.8,87,30.16,10.0,NE,5.8,-,N/A,,Mostly Cloudy,40,2011-10-28 04:15:00
11:55 PM,46.4,42.8,87,30.17,10.0,NNE,4.6,-,N/A,,Overcast,20,2011-10-28 04:55:00